sensor_id;sensor_type;location;lat;lon;timestamp;temperature;humidity
20231;DHT22;10274;49.022;9.338;2023-07-20T00:01:29;20.10;99.90
20231;DHT22;10274;49.022;9.338;2023-07-20T00:03:55;20.00;99.90
20231;DHT22;10274;49.022;9.338;2023-07-20T00:06:22;19.90;99.90
20231;DHT22;10274;49.022;9.338;2023-07-20T00:08:50;19.90;99.90
20231;DHT22;10274;49.022;9.338;2023-07-20T00:11:17;19.90;99.90
20231;DHT22;10274;49.022;9.338;2023-07-20T00:13:44;19.90;99.90
20231;DHT22;10274;49.022;9.338;2023-07-20T00:16:10;19.60;99.90
20231;DHT22;10274;49.022;9.338;2023-07-20T00:18:37;19.90;99.90
20231;DHT22;10274;49.022;9.338;2023-07-20T00:21:04;19.90;99.90
20231;DHT22;10274;49.022;9.338;2023-07-20T00:23:31;19.90;99.90
20231;DHT22;10274;49.022;9.338;2023-07-20T00:25:59;19.90;99.90
20231;DHT22;10274;49.022;9.338;2023-07-20T00:28:25;19.80;99.90
20231;DHT22;10274;49.022;9.338;2023-07-20T00:30:52;19.80;99.90
20231;DHT22;10274;49.022;9.338;2023-07-20T00:33:19;19.70;99.90
20231;DHT22;10274;49.022;9.338;2023-07-20T00:35:46;19.70;99.90
20231;DHT22;10274;49.022;9.338;2023-07-20T00:38:12;19.60;99.90
20231;DHT22;10274;49.022;9.338;2023-07-20T00:40:40;19.50;99.90
20231;DHT22;10274;49.022;9.338;2023-07-20T00:43:08;19.40;99.90
20231;DHT22;10274;49.022;9.338;2023-07-20T00:45:36;19.40;99.90
20231;DHT22;10274;49.022;9.338;2023-07-20T00:48:05;19.40;99.90
20231;DHT22;10274;49.022;9.338;2023-07-20T00:50:33;19.50;99.90
20231;DHT22;10274;49.022;9.338;2023-07-20T00:53:02;19.40;99.90
20231;DHT22;10274;49.022;9.338;2023-07-20T00:55:30;19.20;99.90
20231;DHT22;10274;49.022;9.338;2023-07-20T00:57:57;19.20;99.90
20231;DHT22;10274;49.022;9.338;2023-07-20T01:00:25;19.30;99.90
20231;DHT22;10274;49.022;9.338;2023-07-20T01:02:53;19.20;99.90
20231;DHT22;10274;49.022;9.338;2023-07-20T01:05:20;19.20;99.90
20231;DHT22;10274;49.022;9.338;2023-07-20T01:07:55;19.20;99.90
20231;DHT22;10274;49.022;9.338;2023-07-20T01:10:29;19.10;99.90
20231;DHT22;10274;49.022;9.338;2023-07-20T01:12:57;18.80;99.90
20231;DHT22;10274;49.022;9.338;2023-07-20T01:15:27;18.90;99.90
20231;DHT22;10274;49.022;9.338;2023-07-20T01:17:53;18.80;99.90
20231;DHT22;10274;49.022;9.338;2023-07-20T01:20:21;18.90;99.90
20231;DHT22;10274;49.022;9.338;2023-07-20T01:23:06;18.80;99.90
20231;DHT22;10274;49.022;9.338;2023-07-20T01:25:51;18.80;99.90
20231;DHT22;10274;49.022;9.338;2023-07-20T01:28:37;18.80;99.90
20231;DHT22;10274;49.022;9.338;2023-07-20T01:31:16;18.70;99.90
20231;DHT22;10274;49.022;9.338;2023-07-20T01:33:44;18.60;99.90
20231;DHT22;10274;49.022;9.338;2023-07-20T01:36:13;18.60;99.90
20231;DHT22;10274;49.022;9.338;2023-07-20T01:38:40;18.50;99.90
20231;DHT22;10274;49.022;9.338;2023-07-20T01:41:08;18.40;99.90
20231;DHT22;10274;49.022;9.338;2023-07-20T01:43:35;18.40;99.90
20231;DHT22;10274;49.022;9.338;2023-07-20T01:46:02;18.40;1.00
20231;DHT22;10274;49.022;9.338;2023-07-20T01:48:30;18.40;1.00
20231;DHT22;10274;49.022;9.338;2023-07-20T01:50:57;18.40;1.00
20231;DHT22;10274;49.022;9.338;2023-07-20T01:53:24;18.30;1.00
20231;DHT22;10274;49.022;9.338;2023-07-20T01:55:52;18.30;1.00
20231;DHT22;10274;49.022;9.338;2023-07-20T01:58:19;18.20;1.00
20231;DHT22;10274;49.022;9.338;2023-07-20T02:00:46;18.20;1.00
20231;DHT22;10274;49.022;9.338;2023-07-20T02:03:12;18.00;1.00
20231;DHT22;10274;49.022;9.338;2023-07-20T02:05:42;18.00;1.00
20231;DHT22;10274;49.022;9.338;2023-07-20T02:08:08;17.90;95.80
20231;DHT22;10274;49.022;9.338;2023-07-20T02:10:36;17.90;80.30
20231;DHT22;10274;49.022;9.338;2023-07-20T02:13:02;17.80;1.00
20231;DHT22;10274;49.022;9.338;2023-07-20T02:15:29;17.80;99.90
20231;DHT22;10274;49.022;9.338;2023-07-20T02:17:56;17.80;62.60
20231;DHT22;10274;49.022;9.338;2023-07-20T02:20:22;17.80;99.90
20231;DHT22;10274;49.022;9.338;2023-07-20T02:22:50;17.80;99.90
20231;DHT22;10274;49.022;9.338;2023-07-20T02:25:17;17.80;1.00
20231;DHT22;10274;49.022;9.338;2023-07-20T02:27:43;17.60;1.00
20231;DHT22;10274;49.022;9.338;2023-07-20T02:30:10;17.30;1.00
20231;DHT22;10274;49.022;9.338;2023-07-20T02:32:38;17.20;1.00
20231;DHT22;10274;49.022;9.338;2023-07-20T02:35:05;17.30;1.00
20231;DHT22;10274;49.022;9.338;2023-07-20T02:37:32;17.10;1.00
20231;DHT22;10274;49.022;9.338;2023-07-20T02:40:00;17.10;68.70
20231;DHT22;10274;49.022;9.338;2023-07-20T02:42:29;17.10;53.50
20231;DHT22;10274;49.022;9.338;2023-07-20T02:44:55;16.90;1.00
20231;DHT22;10274;49.022;9.338;2023-07-20T02:47:22;16.80;1.00
20231;DHT22;10274;49.022;9.338;2023-07-20T02:49:49;16.60;1.00
20231;DHT22;10274;49.022;9.338;2023-07-20T02:52:15;16.50;1.00
20231;DHT22;10274;49.022;9.338;2023-07-20T02:54:42;16.50;1.00
20231;DHT22;10274;49.022;9.338;2023-07-20T02:57:10;16.30;99.90
20231;DHT22;10274;49.022;9.338;2023-07-20T02:59:37;16.40;99.90
20231;DHT22;10274;49.022;9.338;2023-07-20T03:02:04;16.40;99.90
20231;DHT22;10274;49.022;9.338;2023-07-20T03:04:30;16.00;99.90
20231;DHT22;10274;49.022;9.338;2023-07-20T03:06:57;15.70;99.90
20231;DHT22;10274;49.022;9.338;2023-07-20T03:09:25;15.10;99.90
20231;DHT22;10274;49.022;9.338;2023-07-20T03:11:52;15.10;1.00
20231;DHT22;10274;49.022;9.338;2023-07-20T03:14:20;15.00;99.90
20231;DHT22;10274;49.022;9.338;2023-07-20T03:16:46;15.00;1.00
20231;DHT22;10274;49.022;9.338;2023-07-20T03:19:13;15.30;99.90
20231;DHT22;10274;49.022;9.338;2023-07-20T03:21:40;15.40;99.90
20231;DHT22;10274;49.022;9.338;2023-07-20T03:24:07;15.20;1.00
20231;DHT22;10274;49.022;9.338;2023-07-20T03:26:34;14.80;99.90
20231;DHT22;10274;49.022;9.338;2023-07-20T03:29:01;14.80;1.00
20231;DHT22;10274;49.022;9.338;2023-07-20T03:31:29;14.50;99.90
20231;DHT22;10274;49.022;9.338;2023-07-20T03:33:56;14.80;99.90
20231;DHT22;10274;49.022;9.338;2023-07-20T03:36:22;14.80;1.00
20231;DHT22;10274;49.022;9.338;2023-07-20T03:38:49;15.00;1.00
20231;DHT22;10274;49.022;9.338;2023-07-20T03:41:16;14.80;99.90
20231;DHT22;10274;49.022;9.338;2023-07-20T03:43:45;14.90;1.00
20231;DHT22;10274;49.022;9.338;2023-07-20T03:46:12;14.90;1.00
20231;DHT22;10274;49.022;9.338;2023-07-20T03:48:40;14.90;1.00
20231;DHT22;10274;49.022;9.338;2023-07-20T03:51:06;15.00;1.00
20231;DHT22;10274;49.022;9.338;2023-07-20T03:53:33;14.80;99.90
20231;DHT22;10274;49.022;9.338;2023-07-20T03:56:00;14.60;99.90
20231;DHT22;10274;49.022;9.338;2023-07-20T03:58:26;14.70;99.90
20231;DHT22;10274;49.022;9.338;2023-07-20T04:00:53;14.70;99.90
20231;DHT22;10274;49.022;9.338;2023-07-20T04:03:20;14.80;99.90
20231;DHT22;10274;49.022;9.338;2023-07-20T04:05:49;14.90;99.90
20231;DHT22;10274;49.022;9.338;2023-07-20T04:08:16;14.80;99.90
20231;DHT22;10274;49.022;9.338;2023-07-20T04:10:43;14.80;99.90
20231;DHT22;10274;49.022;9.338;2023-07-20T04:13:10;14.60;99.90
20231;DHT22;10274;49.022;9.338;2023-07-20T04:15:37;14.80;99.90
20231;DHT22;10274;49.022;9.338;2023-07-20T04:18:04;14.80;99.90
20231;DHT22;10274;49.022;9.338;2023-07-20T04:20:30;14.80;99.90
20231;DHT22;10274;49.022;9.338;2023-07-20T04:22:58;14.80;99.90
20231;DHT22;10274;49.022;9.338;2023-07-20T04:25:25;14.80;99.90
20231;DHT22;10274;49.022;9.338;2023-07-20T04:27:52;14.80;99.90
20231;DHT22;10274;49.022;9.338;2023-07-20T04:30:19;14.90;99.90
20231;DHT22;10274;49.022;9.338;2023-07-20T04:32:48;14.80;99.90
20231;DHT22;10274;49.022;9.338;2023-07-20T04:35:17;14.80;99.90
20231;DHT22;10274;49.022;9.338;2023-07-20T04:37:44;14.70;1.00
20231;DHT22;10274;49.022;9.338;2023-07-20T04:40:15;14.60;1.00
20231;DHT22;10274;49.022;9.338;2023-07-20T04:42:42;14.50;1.00
20231;DHT22;10274;49.022;9.338;2023-07-20T04:45:09;14.70;1.00
20231;DHT22;10274;49.022;9.338;2023-07-20T04:47:36;14.70;1.00
20231;DHT22;10274;49.022;9.338;2023-07-20T04:50:03;14.50;1.00
20231;DHT22;10274;49.022;9.338;2023-07-20T04:52:29;14.50;1.00
20231;DHT22;10274;49.022;9.338;2023-07-20T04:54:56;14.50;1.00
20231;DHT22;10274;49.022;9.338;2023-07-20T04:57:24;14.60;1.00
20231;DHT22;10274;49.022;9.338;2023-07-20T04:59:51;14.70;1.00
20231;DHT22;10274;49.022;9.338;2023-07-20T05:02:18;14.70;1.00
20231;DHT22;10274;49.022;9.338;2023-07-20T05:04:45;14.80;1.00
20231;DHT22;10274;49.022;9.338;2023-07-20T05:07:11;14.90;1.00
20231;DHT22;10274;49.022;9.338;2023-07-20T05:09:38;14.80;1.00
20231;DHT22;10274;49.022;9.338;2023-07-20T05:12:06;14.60;1.00
20231;DHT22;10274;49.022;9.338;2023-07-20T05:14:34;14.60;1.00
20231;DHT22;10274;49.022;9.338;2023-07-20T05:17:01;14.60;1.00
20231;DHT22;10274;49.022;9.338;2023-07-20T05:19:27;14.80;1.00
20231;DHT22;10274;49.022;9.338;2023-07-20T05:21:54;15.00;1.00
20231;DHT22;10274;49.022;9.338;2023-07-20T05:24:21;15.10;1.00
20231;DHT22;10274;49.022;9.338;2023-07-20T05:26:48;15.30;1.00
20231;DHT22;10274;49.022;9.338;2023-07-20T05:29:14;15.50;1.00
20231;DHT22;10274;49.022;9.338;2023-07-20T05:31:42;15.60;1.00
20231;DHT22;10274;49.022;9.338;2023-07-20T05:34:09;15.70;1.00
20231;DHT22;10274;49.022;9.338;2023-07-20T05:36:36;15.80;1.00
20231;DHT22;10274;49.022;9.338;2023-07-20T05:39:03;16.10;1.00
20231;DHT22;10274;49.022;9.338;2023-07-20T05:41:30;16.00;1.00
20231;DHT22;10274;49.022;9.338;2023-07-20T05:43:56;16.20;1.00
20231;DHT22;10274;49.022;9.338;2023-07-20T05:46:23;16.40;1.00
20231;DHT22;10274;49.022;9.338;2023-07-20T05:48:52;16.60;1.00
20231;DHT22;10274;49.022;9.338;2023-07-20T05:51:18;16.90;1.00
20231;DHT22;10274;49.022;9.338;2023-07-20T05:53:45;17.10;99.90
20231;DHT22;10274;49.022;9.338;2023-07-20T05:56:13;17.20;99.90
20231;DHT22;10274;49.022;9.338;2023-07-20T05:58:40;17.30;1.00
20231;DHT22;10274;49.022;9.338;2023-07-20T06:01:07;17.50;99.90
20231;DHT22;10274;49.022;9.338;2023-07-20T06:03:34;17.70;99.90
20231;DHT22;10274;49.022;9.338;2023-07-20T06:06:02;17.90;1.00
20231;DHT22;10274;49.022;9.338;2023-07-20T06:08:29;18.10;99.90
20231;DHT22;10274;49.022;9.338;2023-07-20T06:10:56;18.20;1.00
20231;DHT22;10274;49.022;9.338;2023-07-20T06:13:23;18.20;99.90
20231;DHT22;10274;49.022;9.338;2023-07-20T06:15:50;18.20;99.90
20231;DHT22;10274;49.022;9.338;2023-07-20T06:18:22;18.40;99.90
20231;DHT22;10274;49.022;9.338;2023-07-20T06:20:49;18.40;55.00
20231;DHT22;10274;49.022;9.338;2023-07-20T06:23:18;18.60;99.90
20231;DHT22;10274;49.022;9.338;2023-07-20T06:25:45;18.80;1.00
20231;DHT22;10274;49.022;9.338;2023-07-20T06:28:12;18.90;1.00
20231;DHT22;10274;49.022;9.338;2023-07-20T06:30:39;19.00;1.00
20231;DHT22;10274;49.022;9.338;2023-07-20T06:33:05;19.10;1.00
20231;DHT22;10274;49.022;9.338;2023-07-20T06:35:33;19.30;1.00
20231;DHT22;10274;49.022;9.338;2023-07-20T06:38:00;19.40;99.90
20231;DHT22;10274;49.022;9.338;2023-07-20T06:40:28;19.50;99.90
20231;DHT22;10274;49.022;9.338;2023-07-20T06:42:54;19.50;99.90
20231;DHT22;10274;49.022;9.338;2023-07-20T06:45:21;19.50;1.60
20231;DHT22;10274;49.022;9.338;2023-07-20T06:47:48;19.60;25.80
20231;DHT22;10274;49.022;9.338;2023-07-20T06:50:14;19.70;1.00
20231;DHT22;10274;49.022;9.338;2023-07-20T06:52:41;19.50;1.00
20231;DHT22;10274;49.022;9.338;2023-07-20T06:55:08;19.80;1.00
20231;DHT22;10274;49.022;9.338;2023-07-20T06:57:36;19.90;1.00
20231;DHT22;10274;49.022;9.338;2023-07-20T07:00:04;19.90;1.00
20231;DHT22;10274;49.022;9.338;2023-07-20T07:02:32;19.90;1.00
20231;DHT22;10274;49.022;9.338;2023-07-20T07:05:00;20.10;1.00
20231;DHT22;10274;49.022;9.338;2023-07-20T07:07:27;20.40;1.00
20231;DHT22;10274;49.022;9.338;2023-07-20T07:09:53;20.40;1.00
20231;DHT22;10274;49.022;9.338;2023-07-20T07:12:20;20.70;1.00
20231;DHT22;10274;49.022;9.338;2023-07-20T07:14:48;20.80;1.00
20231;DHT22;10274;49.022;9.338;2023-07-20T07:17:15;20.90;1.00
20231;DHT22;10274;49.022;9.338;2023-07-20T07:19:41;21.00;1.00
20231;DHT22;10274;49.022;9.338;2023-07-20T07:22:09;21.00;1.00
20231;DHT22;10274;49.022;9.338;2023-07-20T07:24:37;21.10;99.90
20231;DHT22;10274;49.022;9.338;2023-07-20T07:27:04;21.00;99.90
20231;DHT22;10274;49.022;9.338;2023-07-20T07:29:31;21.00;99.90
20231;DHT22;10274;49.022;9.338;2023-07-20T07:31:59;21.20;99.90
20231;DHT22;10274;49.022;9.338;2023-07-20T07:34:26;21.50;99.90
20231;DHT22;10274;49.022;9.338;2023-07-20T07:36:53;21.60;99.90
20231;DHT22;10274;49.022;9.338;2023-07-20T07:39:19;21.70;99.90
20231;DHT22;10274;49.022;9.338;2023-07-20T07:41:47;22.00;99.90
20231;DHT22;10274;49.022;9.338;2023-07-20T07:44:13;22.10;99.90
20231;DHT22;10274;49.022;9.338;2023-07-20T07:46:40;21.60;99.90
20231;DHT22;10274;49.022;9.338;2023-07-20T07:49:08;21.40;99.90
20231;DHT22;10274;49.022;9.338;2023-07-20T07:51:35;21.40;96.80
20231;DHT22;10274;49.022;9.338;2023-07-20T07:54:02;21.60;96.00
20231;DHT22;10274;49.022;9.338;2023-07-20T07:56:28;21.70;45.00
20231;DHT22;10274;49.022;9.338;2023-07-20T07:58:55;22.10;1.00
20231;DHT22;10274;49.022;9.338;2023-07-20T08:01:22;21.90;1.00
20231;DHT22;10274;49.022;9.338;2023-07-20T08:03:49;22.20;1.00
20231;DHT22;10274;49.022;9.338;2023-07-20T08:06:17;22.50;1.00
20231;DHT22;10274;49.022;9.338;2023-07-20T08:08:44;22.40;1.00
20231;DHT22;10274;49.022;9.338;2023-07-20T08:11:11;22.80;1.00
20231;DHT22;10274;49.022;9.338;2023-07-20T08:13:37;23.30;1.00
20231;DHT22;10274;49.022;9.338;2023-07-20T08:16:04;23.50;1.00
20231;DHT22;10274;49.022;9.338;2023-07-20T08:18:31;22.30;1.00
20231;DHT22;10274;49.022;9.338;2023-07-20T08:20:57;22.80;1.00
20231;DHT22;10274;49.022;9.338;2023-07-20T08:23:25;24.40;1.00
20231;DHT22;10274;49.022;9.338;2023-07-20T08:25:53;23.50;1.00
20231;DHT22;10274;49.022;9.338;2023-07-20T08:28:19;25.40;1.00
20231;DHT22;10274;49.022;9.338;2023-07-20T08:30:47;23.80;1.00
20231;DHT22;10274;49.022;9.338;2023-07-20T08:33:14;22.80;1.00
20231;DHT22;10274;49.022;9.338;2023-07-20T08:35:41;23.10;1.00
20231;DHT22;10274;49.022;9.338;2023-07-20T08:38:08;22.70;1.00
20231;DHT22;10274;49.022;9.338;2023-07-20T08:40:41;24.00;1.00
20231;DHT22;10274;49.022;9.338;2023-07-20T08:43:08;24.30;1.00
20231;DHT22;10274;49.022;9.338;2023-07-20T08:45:36;23.50;1.00
20231;DHT22;10274;49.022;9.338;2023-07-20T08:48:05;24.20;1.00
20231;DHT22;10274;49.022;9.338;2023-07-20T08:50:33;23.10;1.00
20231;DHT22;10274;49.022;9.338;2023-07-20T08:53:00;22.80;1.00
20231;DHT22;10274;49.022;9.338;2023-07-20T08:57:58;26.10;1.00
20231;DHT22;10274;49.022;9.338;2023-07-20T09:00:26;25.10;1.00
20231;DHT22;10274;49.022;9.338;2023-07-20T09:02:54;23.70;1.00
20231;DHT22;10274;49.022;9.338;2023-07-20T09:05:22;23.90;1.00
20231;DHT22;10274;49.022;9.338;2023-07-20T09:07:49;25.50;1.00
20231;DHT22;10274;49.022;9.338;2023-07-20T09:10:16;24.50;1.00
20231;DHT22;10274;49.022;9.338;2023-07-20T09:12:43;23.30;1.00
20231;DHT22;10274;49.022;9.338;2023-07-20T09:15:12;23.00;1.00
20231;DHT22;10274;49.022;9.338;2023-07-20T09:17:39;22.70;1.00
20231;DHT22;10274;49.022;9.338;2023-07-20T09:20:06;23.90;1.00
20231;DHT22;10274;49.022;9.338;2023-07-20T09:22:36;24.70;99.90
20231;DHT22;10274;49.022;9.338;2023-07-20T09:25:06;25.60;99.90
20231;DHT22;10274;49.022;9.338;2023-07-20T09:27:37;27.10;99.90
20231;DHT22;10274;49.022;9.338;2023-07-20T09:30:05;27.30;99.90
20231;DHT22;10274;49.022;9.338;2023-07-20T09:32:38;27.70;99.90
20231;DHT22;10274;49.022;9.338;2023-07-20T09:35:06;27.10;99.90
20231;DHT22;10274;49.022;9.338;2023-07-20T09:37:33;28.20;99.90
20231;DHT22;10274;49.022;9.338;2023-07-20T09:40:00;27.80;99.90
20231;DHT22;10274;49.022;9.338;2023-07-20T09:42:28;27.70;99.90
20231;DHT22;10274;49.022;9.338;2023-07-20T09:44:55;27.30;99.90
20231;DHT22;10274;49.022;9.338;2023-07-20T09:47:22;26.30;99.90
20231;DHT22;10274;49.022;9.338;2023-07-20T09:49:58;25.50;99.90
20231;DHT22;10274;49.022;9.338;2023-07-20T09:52:25;27.50;99.90
20231;DHT22;10274;49.022;9.338;2023-07-20T09:54:52;27.00;99.90
20231;DHT22;10274;49.022;9.338;2023-07-20T09:57:21;25.80;99.90
20231;DHT22;10274;49.022;9.338;2023-07-20T09:59:48;25.40;99.90
20231;DHT22;10274;49.022;9.338;2023-07-20T10:02:20;24.30;99.90
20231;DHT22;10274;49.022;9.338;2023-07-20T10:04:48;24.40;99.90
20231;DHT22;10274;49.022;9.338;2023-07-20T10:07:17;24.60;99.90
20231;DHT22;10274;49.022;9.338;2023-07-20T10:09:48;24.40;99.90
20231;DHT22;10274;49.022;9.338;2023-07-20T10:12:15;24.30;99.90
20231;DHT22;10274;49.022;9.338;2023-07-20T10:14:52;25.00;99.90
20231;DHT22;10274;49.022;9.338;2023-07-20T10:17:21;26.10;99.90
20231;DHT22;10274;49.022;9.338;2023-07-20T10:19:52;27.00;99.90
20231;DHT22;10274;49.022;9.338;2023-07-20T10:22:25;27.90;99.90
20231;DHT22;10274;49.022;9.338;2023-07-20T10:24:53;26.80;99.90
20231;DHT22;10274;49.022;9.338;2023-07-20T10:27:23;25.40;99.90
20231;DHT22;10274;49.022;9.338;2023-07-20T10:29:51;25.20;99.90
20231;DHT22;10274;49.022;9.338;2023-07-20T10:32:19;24.90;99.90
20231;DHT22;10274;49.022;9.338;2023-07-20T10:34:50;25.30;99.90
20231;DHT22;10274;49.022;9.338;2023-07-20T10:37:49;26.50;99.90
20231;DHT22;10274;49.022;9.338;2023-07-20T10:40:30;27.30;99.90
20231;DHT22;10274;49.022;9.338;2023-07-20T10:43:02;27.30;99.90
20231;DHT22;10274;49.022;9.338;2023-07-20T10:45:37;26.40;99.90
20231;DHT22;10274;49.022;9.338;2023-07-20T10:48:06;26.70;99.90
20231;DHT22;10274;49.022;9.338;2023-07-20T10:50:39;28.00;99.90
20231;DHT22;10274;49.022;9.338;2023-07-20T10:53:18;29.40;99.90
20231;DHT22;10274;49.022;9.338;2023-07-20T10:55:45;29.70;99.90
20231;DHT22;10274;49.022;9.338;2023-07-20T10:58:16;28.40;99.90
20231;DHT22;10274;49.022;9.338;2023-07-20T11:00:56;27.10;99.90
20231;DHT22;10274;49.022;9.338;2023-07-20T11:03:29;26.80;99.90
20231;DHT22;10274;49.022;9.338;2023-07-20T11:05:57;26.90;99.90
20231;DHT22;10274;49.022;9.338;2023-07-20T11:08:46;28.10;99.90
20231;DHT22;10274;49.022;9.338;2023-07-20T11:11:23;28.50;99.90
20231;DHT22;10274;49.022;9.338;2023-07-20T11:13:54;29.20;99.90
20231;DHT22;10274;49.022;9.338;2023-07-20T11:16:35;28.70;99.90
20231;DHT22;10274;49.022;9.338;2023-07-20T11:19:02;27.40;99.90
20231;DHT22;10274;49.022;9.338;2023-07-20T11:21:29;26.30;99.90
20231;DHT22;10274;49.022;9.338;2023-07-20T11:23:58;25.60;99.90
20231;DHT22;10274;49.022;9.338;2023-07-20T11:26:24;26.20;99.90
20231;DHT22;10274;49.022;9.338;2023-07-20T11:28:51;27.50;99.90
20231;DHT22;10274;49.022;9.338;2023-07-20T11:31:18;27.40;99.90
20231;DHT22;10274;49.022;9.338;2023-07-20T11:33:45;27.20;99.90
20231;DHT22;10274;49.022;9.338;2023-07-20T11:36:12;28.00;99.90
20231;DHT22;10274;49.022;9.338;2023-07-20T11:38:41;28.80;99.90
20231;DHT22;10274;49.022;9.338;2023-07-20T11:41:10;28.90;99.90
20231;DHT22;10274;49.022;9.338;2023-07-20T11:43:37;29.10;99.90
20231;DHT22;10274;49.022;9.338;2023-07-20T11:46:05;29.10;99.90
20231;DHT22;10274;49.022;9.338;2023-07-20T11:48:31;29.20;99.90
20231;DHT22;10274;49.022;9.338;2023-07-20T11:50:58;29.40;99.90
20231;DHT22;10274;49.022;9.338;2023-07-20T11:53:25;29.30;99.90
20231;DHT22;10274;49.022;9.338;2023-07-20T11:55:53;28.90;99.90
20231;DHT22;10274;49.022;9.338;2023-07-20T11:58:22;28.40;99.90
20231;DHT22;10274;49.022;9.338;2023-07-20T12:00:48;28.30;99.90
20231;DHT22;10274;49.022;9.338;2023-07-20T12:03:15;28.80;99.90
20231;DHT22;10274;49.022;9.338;2023-07-20T12:05:42;29.10;99.90
20231;DHT22;10274;49.022;9.338;2023-07-20T12:08:10;28.40;99.90
20231;DHT22;10274;49.022;9.338;2023-07-20T12:10:39;27.80;99.90
20231;DHT22;10274;49.022;9.338;2023-07-20T12:13:09;27.50;99.90
20231;DHT22;10274;49.022;9.338;2023-07-20T12:15:38;27.50;99.90
20231;DHT22;10274;49.022;9.338;2023-07-20T12:18:05;27.30;99.90
20231;DHT22;10274;49.022;9.338;2023-07-20T12:20:33;27.40;99.90
20231;DHT22;10274;49.022;9.338;2023-07-20T12:23:01;27.10;99.90
20231;DHT22;10274;49.022;9.338;2023-07-20T12:25:36;26.90;99.90
20231;DHT22;10274;49.022;9.338;2023-07-20T12:28:05;27.70;99.90
20231;DHT22;10274;49.022;9.338;2023-07-20T12:30:31;27.50;99.90
20231;DHT22;10274;49.022;9.338;2023-07-20T12:33:00;27.40;99.90
20231;DHT22;10274;49.022;9.338;2023-07-20T12:35:27;27.30;99.90
20231;DHT22;10274;49.022;9.338;2023-07-20T12:37:54;26.90;99.90
20231;DHT22;10274;49.022;9.338;2023-07-20T12:40:21;27.00;99.90
20231;DHT22;10274;49.022;9.338;2023-07-20T12:42:48;27.40;99.90
20231;DHT22;10274;49.022;9.338;2023-07-20T12:45:15;26.40;99.90
20231;DHT22;10274;49.022;9.338;2023-07-20T12:47:41;26.90;99.90
20231;DHT22;10274;49.022;9.338;2023-07-20T12:50:10;27.20;99.90
20231;DHT22;10274;49.022;9.338;2023-07-20T12:52:38;27.70;99.90
20231;DHT22;10274;49.022;9.338;2023-07-20T12:55:07;28.40;99.90
20231;DHT22;10274;49.022;9.338;2023-07-20T12:57:34;28.40;99.90
20231;DHT22;10274;49.022;9.338;2023-07-20T13:00:02;28.30;99.90
20231;DHT22;10274;49.022;9.338;2023-07-20T13:02:30;28.30;99.90
20231;DHT22;10274;49.022;9.338;2023-07-20T13:04:57;28.40;99.90
20231;DHT22;10274;49.022;9.338;2023-07-20T13:07:31;28.00;99.90
20231;DHT22;10274;49.022;9.338;2023-07-20T13:09:59;27.80;99.90
20231;DHT22;10274;49.022;9.338;2023-07-20T13:12:26;27.00;95.50
20231;DHT22;10274;49.022;9.338;2023-07-20T13:14:53;27.40;97.00
20231;DHT22;10274;49.022;9.338;2023-07-20T13:17:20;26.70;94.00
20231;DHT22;10274;49.022;9.338;2023-07-20T13:19:47;26.70;98.40
20231;DHT22;10274;49.022;9.338;2023-07-20T13:22:14;27.50;99.90
20231;DHT22;10274;49.022;9.338;2023-07-20T13:24:44;27.90;97.80
20231;DHT22;10274;49.022;9.338;2023-07-20T13:27:11;28.40;92.50
20231;DHT22;10274;49.022;9.338;2023-07-20T13:29:38;27.30;79.00
20231;DHT22;10274;49.022;9.338;2023-07-20T13:32:05;27.30;76.90
20231;DHT22;10274;49.022;9.338;2023-07-20T13:34:32;27.40;82.00
20231;DHT22;10274;49.022;9.338;2023-07-20T13:36:59;27.40;84.60
20231;DHT22;10274;49.022;9.338;2023-07-20T13:39:26;27.30;80.50
20231;DHT22;10274;49.022;9.338;2023-07-20T13:41:55;27.40;90.00
20231;DHT22;10274;49.022;9.338;2023-07-20T13:44:21;27.50;91.10
20231;DHT22;10274;49.022;9.338;2023-07-20T13:46:48;28.10;93.50
20231;DHT22;10274;49.022;9.338;2023-07-20T13:49:15;27.90;93.20
20231;DHT22;10274;49.022;9.338;2023-07-20T13:51:42;28.10;92.50
20231;DHT22;10274;49.022;9.338;2023-07-20T13:54:09;28.50;99.90
20231;DHT22;10274;49.022;9.338;2023-07-20T13:56:37;28.30;98.40
20231;DHT22;10274;49.022;9.338;2023-07-20T13:59:05;27.60;99.90
20231;DHT22;10274;49.022;9.338;2023-07-20T14:01:32;27.40;99.90
20231;DHT22;10274;49.022;9.338;2023-07-20T14:04:00;27.70;99.70
20231;DHT22;10274;49.022;9.338;2023-07-20T14:06:30;27.90;99.10
20231;DHT22;10274;49.022;9.338;2023-07-20T14:08:57;28.50;99.90
20231;DHT22;10274;49.022;9.338;2023-07-20T14:11:24;28.30;98.60
20231;DHT22;10274;49.022;9.338;2023-07-20T14:13:51;28.50;99.90
20231;DHT22;10274;49.022;9.338;2023-07-20T14:16:19;28.60;97.20
20231;DHT22;10274;49.022;9.338;2023-07-20T14:18:46;28.80;97.00
20231;DHT22;10274;49.022;9.338;2023-07-20T14:21:14;27.70;78.10
20231;DHT22;10274;49.022;9.338;2023-07-20T14:23:41;27.30;83.60
20231;DHT22;10274;49.022;9.338;2023-07-20T14:26:07;28.00;92.30
20231;DHT22;10274;49.022;9.338;2023-07-20T14:28:34;28.10;97.70
20231;DHT22;10274;49.022;9.338;2023-07-20T14:31:01;28.00;94.40
20231;DHT22;10274;49.022;9.338;2023-07-20T14:33:29;28.00;93.40
20231;DHT22;10274;49.022;9.338;2023-07-20T14:35:56;28.10;82.30
20231;DHT22;10274;49.022;9.338;2023-07-20T14:38:23;28.30;84.00
20231;DHT22;10274;49.022;9.338;2023-07-20T14:40:49;27.80;71.00
20231;DHT22;10274;49.022;9.338;2023-07-20T14:43:16;27.20;66.60
20231;DHT22;10274;49.022;9.338;2023-07-20T14:45:43;27.00;67.20
20231;DHT22;10274;49.022;9.338;2023-07-20T14:48:11;27.00;75.30
20231;DHT22;10274;49.022;9.338;2023-07-20T14:50:39;27.40;91.80
20231;DHT22;10274;49.022;9.338;2023-07-20T14:53:05;27.10;91.00
20231;DHT22;10274;49.022;9.338;2023-07-20T14:55:33;27.40;83.50
20231;DHT22;10274;49.022;9.338;2023-07-20T14:57:59;27.50;84.20
20231;DHT22;10274;49.022;9.338;2023-07-20T15:00:26;27.30;84.50
20231;DHT22;10274;49.022;9.338;2023-07-20T15:02:53;27.30;79.30
20231;DHT22;10274;49.022;9.338;2023-07-20T15:05:21;27.50;82.70
20231;DHT22;10274;49.022;9.338;2023-07-20T15:07:50;27.30;79.70
20231;DHT22;10274;49.022;9.338;2023-07-20T15:10:17;26.90;67.40
20231;DHT22;10274;49.022;9.338;2023-07-20T15:12:44;26.60;68.90
20231;DHT22;10274;49.022;9.338;2023-07-20T15:15:12;26.70;77.80
20231;DHT22;10274;49.022;9.338;2023-07-20T15:17:41;26.50;69.90
20231;DHT22;10274;49.022;9.338;2023-07-20T15:20:11;26.60;68.00
20231;DHT22;10274;49.022;9.338;2023-07-20T15:22:39;26.60;66.10
20231;DHT22;10274;49.022;9.338;2023-07-20T15:25:08;26.50;67.60
20231;DHT22;10274;49.022;9.338;2023-07-20T15:27:36;26.80;72.30
20231;DHT22;10274;49.022;9.338;2023-07-20T15:30:04;26.60;60.10
20231;DHT22;10274;49.022;9.338;2023-07-20T15:32:31;26.70;63.30
20231;DHT22;10274;49.022;9.338;2023-07-20T15:34:58;27.10;68.90
20231;DHT22;10274;49.022;9.338;2023-07-20T15:37:24;27.00;74.90
20231;DHT22;10274;49.022;9.338;2023-07-20T15:39:51;27.20;73.60
20231;DHT22;10274;49.022;9.338;2023-07-20T15:42:18;27.10;71.70